sensor_id;sensor_type;location;lat;lon;timestamp;P1;durP1;ratioP1;P2;durP2;ratioP2
52494;SDS011;38405;53.212;5.660;2023-02-24T00:01:48;11.40;;;1.80;;
52494;SDS011;38405;53.212;5.660;2023-02-24T00:04:16;4.55;;;1.13;;
52494;SDS011;38405;53.212;5.660;2023-02-24T00:06:44;8.75;;;1.40;;
52494;SDS011;38405;53.212;5.660;2023-02-24T00:09:12;6.30;;;1.25;;
52494;SDS011;38405;53.212;5.660;2023-02-24T00:11:48;7.93;;;1.60;;
52494;SDS011;38405;53.212;5.660;2023-02-24T00:14:17;8.05;;;1.58;;
52494;SDS011;38405;53.212;5.660;2023-02-24T00:16:44;4.78;;;1.40;;
52494;SDS011;38405;53.212;5.660;2023-02-24T00:19:14;10.65;;;1.73;;
52494;SDS011;38405;53.212;5.660;2023-02-24T00:21:42;11.65;;;1.75;;
52494;SDS011;38405;53.212;5.660;2023-02-24T00:24:09;7.03;;;1.83;;
52494;SDS011;38405;53.212;5.660;2023-02-24T00:26:35;7.97;;;1.50;;
52494;SDS011;38405;53.212;5.660;2023-02-24T00:29:03;10.02;;;1.48;;
52494;SDS011;38405;53.212;5.660;2023-02-24T00:31:29;10.30;;;2.00;;
52494;SDS011;38405;53.212;5.660;2023-02-24T00:33:55;7.55;;;1.50;;
52494;SDS011;38405;53.212;5.660;2023-02-24T00:36:22;9.82;;;1.50;;
52494;SDS011;38405;53.212;5.660;2023-02-24T00:38:52;6.25;;;1.70;;
52494;SDS011;38405;53.212;5.660;2023-02-24T00:41:20;7.38;;;1.67;;
52494;SDS011;38405;53.212;5.660;2023-02-24T00:43:48;5.03;;;1.30;;
52494;SDS011;38405;53.212;5.660;2023-02-24T00:46:15;5.68;;;1.30;;
52494;SDS011;38405;53.212;5.660;2023-02-24T00:48:43;13.52;;;1.88;;
52494;SDS011;38405;53.212;5.660;2023-02-24T00:51:19;9.18;;;1.33;;
52494;SDS011;38405;53.212;5.660;2023-02-24T00:53:50;8.85;;;1.70;;
52494;SDS011;38405;53.212;5.660;2023-02-24T00:56:20;7.75;;;1.40;;
52494;SDS011;38405;53.212;5.660;2023-02-24T00:58:47;4.35;;;1.20;;
52494;SDS011;38405;53.212;5.660;2023-02-24T01:01:13;6.75;;;1.08;;
52494;SDS011;38405;53.212;5.660;2023-02-24T01:03:41;11.55;;;1.35;;
52494;SDS011;38405;53.212;5.660;2023-02-24T01:06:08;7.53;;;1.27;;
52494;SDS011;38405;53.212;5.660;2023-02-24T01:08:36;11.88;;;1.85;;
52494;SDS011;38405;53.212;5.660;2023-02-24T01:11:11;8.55;;;1.75;;
52494;SDS011;38405;53.212;5.660;2023-02-24T01:13:56;8.43;;;1.48;;
52494;SDS011;38405;53.212;5.660;2023-02-24T01:16:22;10.77;;;1.83;;
52494;SDS011;38405;53.212;5.660;2023-02-24T01:18:48;8.48;;;1.50;;
52494;SDS011;38405;53.212;5.660;2023-02-24T01:21:17;6.93;;;1.55;;
52494;SDS011;38405;53.212;5.660;2023-02-24T01:23:47;6.82;;;1.42;;
52494;SDS011;38405;53.212;5.660;2023-02-24T01:26:14;8.38;;;1.90;;
52494;SDS011;38405;53.212;5.660;2023-02-24T01:28:41;9.25;;;1.33;;
52494;SDS011;38405;53.212;5.660;2023-02-24T01:31:07;10.50;;;1.52;;
52494;SDS011;38405;53.212;5.660;2023-02-24T01:33:33;5.07;;;1.17;;
52494;SDS011;38405;53.212;5.660;2023-02-24T01:36:09;6.25;;;1.50;;
52494;SDS011;38405;53.212;5.660;2023-02-24T01:38:36;8.35;;;1.40;;
52494;SDS011;38405;53.212;5.660;2023-02-24T01:41:03;11.10;;;1.52;;
52494;SDS011;38405;53.212;5.660;2023-02-24T01:43:30;7.55;;;1.33;;
52494;SDS011;38405;53.212;5.660;2023-02-24T01:46:16;6.18;;;1.30;;
52494;SDS011;38405;53.212;5.660;2023-02-24T01:48:41;8.18;;;1.50;;
52494;SDS011;38405;53.212;5.660;2023-02-24T01:51:07;9.48;;;1.27;;
52494;SDS011;38405;53.212;5.660;2023-02-24T01:53:36;10.45;;;1.85;;
52494;SDS011;38405;53.212;5.660;2023-02-24T01:56:02;7.50;;;1.42;;
52494;SDS011;38405;53.212;5.660;2023-02-24T01:58:31;11.00;;;1.50;;
52494;SDS011;38405;53.212;5.660;2023-02-24T02:00:58;9.63;;;1.65;;
52494;SDS011;38405;53.212;5.660;2023-02-24T02:05:59;8.32;;;1.95;;
52494;SDS011;38405;53.212;5.660;2023-02-24T02:08:29;8.45;;;1.17;;
52494;SDS011;38405;53.212;5.660;2023-02-24T02:11:04;11.20;;;1.85;;
52494;SDS011;38405;53.212;5.660;2023-02-24T02:13:36;7.65;;;1.30;;
52494;SDS011;38405;53.212;5.660;2023-02-24T02:18:53;14.68;;;1.80;;
52494;SDS011;38405;53.212;5.660;2023-02-24T02:24:40;15.35;;;2.13;;
52494;SDS011;38405;53.212;5.660;2023-02-24T02:27:27;17.00;;;1.75;;
52494;SDS011;38405;53.212;5.660;2023-02-24T02:35:57;7.90;;;1.48;;
52494;SDS011;38405;53.212;5.660;2023-02-24T02:38:52;8.48;;;1.50;;
52494;SDS011;38405;53.212;5.660;2023-02-24T02:41:33;10.95;;;1.55;;
52494;SDS011;38405;53.212;5.660;2023-02-24T02:46:35;9.93;;;1.40;;
52494;SDS011;38405;53.212;5.660;2023-02-24T02:49:20;11.80;;;1.55;;
52494;SDS011;38405;53.212;5.660;2023-02-24T02:51:55;6.25;;;1.67;;
52494;SDS011;38405;53.212;5.660;2023-02-24T02:54:46;12.98;;;1.70;;
52494;SDS011;38405;53.212;5.660;2023-02-24T02:59:54;9.65;;;1.80;;
52494;SDS011;38405;53.212;5.660;2023-02-24T03:02:24;11.95;;;2.00;;
52494;SDS011;38405;53.212;5.660;2023-02-24T03:04:57;14.18;;;1.65;;
52494;SDS011;38405;53.212;5.660;2023-02-24T03:07:27;14.20;;;2.28;;
52494;SDS011;38405;53.212;5.660;2023-02-24T03:10:00;9.98;;;1.73;;
52494;SDS011;38405;53.212;5.660;2023-02-24T03:12:37;8.32;;;1.55;;
52494;SDS011;38405;53.212;5.660;2023-02-24T03:15:06;13.40;;;2.13;;
52494;SDS011;38405;53.212;5.660;2023-02-24T03:17:36;10.68;;;1.92;;
52494;SDS011;38405;53.212;5.660;2023-02-24T03:20:12;7.72;;;1.88;;
52494;SDS011;38405;53.212;5.660;2023-02-24T03:22:48;8.80;;;2.17;;
52494;SDS011;38405;53.212;5.660;2023-02-24T03:25:24;8.40;;;1.98;;
52494;SDS011;38405;53.212;5.660;2023-02-24T03:28:00;13.20;;;1.75;;
52494;SDS011;38405;53.212;5.660;2023-02-24T03:30:38;10.18;;;1.55;;
52494;SDS011;38405;53.212;5.660;2023-02-24T03:33:23;15.70;;;1.88;;
52494;SDS011;38405;53.212;5.660;2023-02-24T03:35:55;14.15;;;2.67;;
52494;SDS011;38405;53.212;5.660;2023-02-24T03:38:25;10.77;;;1.92;;
52494;SDS011;38405;53.212;5.660;2023-02-24T03:40:53;13.52;;;2.15;;
52494;SDS011;38405;53.212;5.660;2023-02-24T03:45:49;11.60;;;2.40;;
52494;SDS011;38405;53.212;5.660;2023-02-24T03:48:15;11.07;;;1.88;;
52494;SDS011;38405;53.212;5.660;2023-02-24T03:50:41;12.20;;;3.08;;
52494;SDS011;38405;53.212;5.660;2023-02-24T04:01:47;8.48;;;1.60;;
52494;SDS011;38405;53.212;5.660;2023-02-24T04:13:08;17.77;;;2.50;;
52494;SDS011;38405;53.212;5.660;2023-02-24T04:15:43;11.98;;;2.58;;
52494;SDS011;38405;53.212;5.660;2023-02-24T04:18:16;13.35;;;2.00;;
52494;SDS011;38405;53.212;5.660;2023-02-24T04:20:45;15.18;;;2.72;;
52494;SDS011;38405;53.212;5.660;2023-02-24T04:23:17;12.93;;;2.10;;
52494;SDS011;38405;53.212;5.660;2023-02-24T04:25:48;20.98;;;3.42;;
52494;SDS011;38405;53.212;5.660;2023-02-24T04:28:20;14.65;;;2.88;;
52494;SDS011;38405;53.212;5.660;2023-02-24T04:30:48;15.43;;;2.45;;
52494;SDS011;38405;53.212;5.660;2023-02-24T04:33:18;9.75;;;2.08;;
52494;SDS011;38405;53.212;5.660;2023-02-24T04:35:44;18.25;;;2.75;;
52494;SDS011;38405;53.212;5.660;2023-02-24T04:38:14;20.63;;;2.67;;
52494;SDS011;38405;53.212;5.660;2023-02-24T04:40:41;14.30;;;2.42;;
52494;SDS011;38405;53.212;5.660;2023-02-24T04:43:09;12.88;;;2.80;;
52494;SDS011;38405;53.212;5.660;2023-02-24T04:45:39;14.82;;;2.83;;
52494;SDS011;38405;53.212;5.660;2023-02-24T04:48:05;19.42;;;3.95;;
52494;SDS011;38405;53.212;5.660;2023-02-24T04:50:37;23.60;;;3.28;;
52494;SDS011;38405;53.212;5.660;2023-02-24T04:53:15;20.20;;;3.58;;
52494;SDS011;38405;53.212;5.660;2023-02-24T04:55:42;12.40;;;2.63;;
52494;SDS011;38405;53.212;5.660;2023-02-24T04:58:13;17.70;;;2.58;;
52494;SDS011;38405;53.212;5.660;2023-02-24T05:00:43;20.10;;;3.22;;
52494;SDS011;38405;53.212;5.660;2023-02-24T05:03:12;18.88;;;2.78;;
52494;SDS011;38405;53.212;5.660;2023-02-24T05:05:47;11.35;;;2.90;;
52494;SDS011;38405;53.212;5.660;2023-02-24T05:08:16;17.05;;;3.20;;
52494;SDS011;38405;53.212;5.660;2023-02-24T05:10:43;16.10;;;2.72;;
52494;SDS011;38405;53.212;5.660;2023-02-24T05:13:17;18.10;;;3.10;;
52494;SDS011;38405;53.212;5.660;2023-02-24T05:15:45;15.73;;;2.88;;
52494;SDS011;38405;53.212;5.660;2023-02-24T05:18:14;18.70;;;2.47;;
52494;SDS011;38405;53.212;5.660;2023-02-24T05:20:52;14.98;;;2.92;;
52494;SDS011;38405;53.212;5.660;2023-02-24T05:23:39;22.48;;;3.22;;
52494;SDS011;38405;53.212;5.660;2023-02-24T05:26:08;18.17;;;3.40;;
52494;SDS011;38405;53.212;5.660;2023-02-24T05:28:38;19.17;;;3.22;;
52494;SDS011;38405;53.212;5.660;2023-02-24T05:31:12;13.98;;;3.55;;
52494;SDS011;38405;53.212;5.660;2023-02-24T05:33:42;26.85;;;4.15;;
52494;SDS011;38405;53.212;5.660;2023-02-24T05:36:15;20.92;;;4.13;;
52494;SDS011;38405;53.212;5.660;2023-02-24T05:38:42;25.83;;;4.05;;
52494;SDS011;38405;53.212;5.660;2023-02-24T05:41:11;18.58;;;4.15;;
52494;SDS011;38405;53.212;5.660;2023-02-24T05:43:45;26.77;;;4.72;;
52494;SDS011;38405;53.212;5.660;2023-02-24T05:46:17;23.65;;;4.40;;
52494;SDS011;38405;53.212;5.660;2023-02-24T05:48:50;23.58;;;3.63;;
52494;SDS011;38405;53.212;5.660;2023-02-24T05:51:15;23.38;;;3.83;;
52494;SDS011;38405;53.212;5.660;2023-02-24T05:53:41;18.92;;;3.63;;
52494;SDS011;38405;53.212;5.660;2023-02-24T05:56:07;14.65;;;3.45;;
52494;SDS011;38405;53.212;5.660;2023-02-24T05:58:33;21.45;;;4.10;;
52494;SDS011;38405;53.212;5.660;2023-02-24T06:01:07;20.45;;;3.63;;
52494;SDS011;38405;53.212;5.660;2023-02-24T06:03:40;19.35;;;3.65;;
52494;SDS011;38405;53.212;5.660;2023-02-24T06:06:12;11.80;;;3.15;;
52494;SDS011;38405;53.212;5.660;2023-02-24T06:08:39;19.95;;;3.17;;
52494;SDS011;38405;53.212;5.660;2023-02-24T06:11:13;20.05;;;3.75;;
52494;SDS011;38405;53.212;5.660;2023-02-24T06:13:43;25.70;;;3.35;;
52494;SDS011;38405;53.212;5.660;2023-02-24T06:16:11;17.27;;;3.17;;
52494;SDS011;38405;53.212;5.660;2023-02-24T06:18:39;23.63;;;3.60;;
52494;SDS011;38405;53.212;5.660;2023-02-24T06:21:05;20.85;;;3.17;;
52494;SDS011;38405;53.212;5.660;2023-02-24T06:23:31;19.23;;;4.32;;
52494;SDS011;38405;53.212;5.660;2023-02-24T06:26:01;29.35;;;3.95;;
52494;SDS011;38405;53.212;5.660;2023-02-24T06:28:28;26.67;;;4.60;;
52494;SDS011;38405;53.212;5.660;2023-02-24T06:30:54;13.27;;;2.92;;
52494;SDS011;38405;53.212;5.660;2023-02-24T06:33:20;17.13;;;2.95;;
52494;SDS011;38405;53.212;5.660;2023-02-24T06:35:46;19.15;;;3.97;;
52494;SDS011;38405;53.212;5.660;2023-02-24T06:38:12;24.42;;;4.03;;
52494;SDS011;38405;53.212;5.660;2023-02-24T06:40:39;23.08;;;4.40;;
52494;SDS011;38405;53.212;5.660;2023-02-24T06:43:07;19.05;;;3.08;;
52494;SDS011;38405;53.212;5.660;2023-02-24T06:45:33;19.35;;;3.83;;
52494;SDS011;38405;53.212;5.660;2023-02-24T06:47:59;20.35;;;3.65;;
52494;SDS011;38405;53.212;5.660;2023-02-24T06:50:25;21.05;;;3.58;;
52494;SDS011;38405;53.212;5.660;2023-02-24T06:52:53;26.75;;;3.90;;
52494;SDS011;38405;53.212;5.660;2023-02-24T06:55:26;20.35;;;3.75;;
52494;SDS011;38405;53.212;5.660;2023-02-24T06:57:56;21.45;;;3.67;;
52494;SDS011;38405;53.212;5.660;2023-02-24T07:00:31;22.55;;;3.33;;
52494;SDS011;38405;53.212;5.660;2023-02-24T07:03:06;32.75;;;4.03;;
52494;SDS011;38405;53.212;5.660;2023-02-24T07:05:42;21.63;;;3.92;;
52494;SDS011;38405;53.212;5.660;2023-02-24T07:08:22;28.00;;;4.53;;
52494;SDS011;38405;53.212;5.660;2023-02-24T07:10:54;15.90;;;3.55;;
52494;SDS011;38405;53.212;5.660;2023-02-24T07:13:25;26.50;;;4.28;;
52494;SDS011;38405;53.212;5.660;2023-02-24T07:15:54;29.02;;;3.78;;
52494;SDS011;38405;53.212;5.660;2023-02-24T07:18:20;29.35;;;4.15;;
52494;SDS011;38405;53.212;5.660;2023-02-24T07:20:47;28.95;;;4.78;;
52494;SDS011;38405;53.212;5.660;2023-02-24T07:23:14;29.08;;;5.00;;
52494;SDS011;38405;53.212;5.660;2023-02-24T07:25:41;23.88;;;4.93;;
52494;SDS011;38405;53.212;5.660;2023-02-24T07:28:10;25.17;;;5.18;;
52494;SDS011;38405;53.212;5.660;2023-02-24T07:30:38;19.30;;;4.03;;
52494;SDS011;38405;53.212;5.660;2023-02-24T07:33:05;25.23;;;4.70;;
52494;SDS011;38405;53.212;5.660;2023-02-24T07:35:31;35.67;;;5.78;;
52494;SDS011;38405;53.212;5.660;2023-02-24T07:37:59;24.90;;;6.68;;
52494;SDS011;38405;53.212;5.660;2023-02-24T07:40:29;26.40;;;5.18;;
52494;SDS011;38405;53.212;5.660;2023-02-24T07:43:01;23.52;;;6.55;;
52494;SDS011;38405;53.212;5.660;2023-02-24T07:45:30;31.65;;;5.45;;
52494;SDS011;38405;53.212;5.660;2023-02-24T07:47:56;21.80;;;5.13;;
52494;SDS011;38405;53.212;5.660;2023-02-24T07:50:22;24.80;;;5.75;;
52494;SDS011;38405;53.212;5.660;2023-02-24T07:52:48;22.40;;;5.05;;
52494;SDS011;38405;53.212;5.660;2023-02-24T07:55:14;21.27;;;5.50;;
52494;SDS011;38405;53.212;5.660;2023-02-24T07:57:40;14.50;;;4.72;;
52494;SDS011;38405;53.212;5.660;2023-02-24T08:00:11;25.48;;;5.45;;
52494;SDS011;38405;53.212;5.660;2023-02-24T08:02:45;23.95;;;5.15;;
52494;SDS011;38405;53.212;5.660;2023-02-24T08:05:15;24.08;;;5.28;;
52494;SDS011;38405;53.212;5.660;2023-02-24T08:07:45;23.77;;;5.68;;
52494;SDS011;38405;53.212;5.660;2023-02-24T08:10:14;21.13;;;5.55;;
52494;SDS011;38405;53.212;5.660;2023-02-24T08:12:53;25.17;;;4.93;;
52494;SDS011;38405;53.212;5.660;2023-02-24T08:15:20;28.17;;;5.72;;
52494;SDS011;38405;53.212;5.660;2023-02-24T08:17:49;28.73;;;5.07;;
52494;SDS011;38405;53.212;5.660;2023-02-24T08:20:23;19.95;;;4.90;;
52494;SDS011;38405;53.212;5.660;2023-02-24T08:22:51;22.52;;;5.57;;
52494;SDS011;38405;53.212;5.660;2023-02-24T08:25:19;30.83;;;4.78;;
52494;SDS011;38405;53.212;5.660;2023-02-24T08:27:48;22.40;;;4.55;;
52494;SDS011;38405;53.212;5.660;2023-02-24T08:32:50;20.38;;;4.22;;
52494;SDS011;38405;53.212;5.660;2023-02-24T08:35:22;23.17;;;4.95;;
52494;SDS011;38405;53.212;5.660;2023-02-24T08:37:56;26.27;;;4.70;;
52494;SDS011;38405;53.212;5.660;2023-02-24T08:40:35;24.45;;;4.65;;
52494;SDS011;38405;53.212;5.660;2023-02-24T08:45:48;19.10;;;3.92;;
52494;SDS011;38405;53.212;5.660;2023-02-24T08:48:23;15.05;;;3.75;;
52494;SDS011;38405;53.212;5.660;2023-02-24T08:53:22;16.65;;;2.53;;
52494;SDS011;38405;53.212;5.660;2023-02-24T08:55:54;9.30;;;2.50;;
52494;SDS011;38405;53.212;5.660;2023-02-24T08:58:20;13.20;;;3.22;;
52494;SDS011;38405;53.212;5.660;2023-02-24T09:00:57;11.88;;;3.53;;
52494;SDS011;38405;53.212;5.660;2023-02-24T09:03:26;20.67;;;3.80;;
52494;SDS011;38405;53.212;5.660;2023-02-24T09:06:06;28.83;;;3.90;;
52494;SDS011;38405;53.212;5.660;2023-02-24T09:08:37;26.95;;;3.67;;
52494;SDS011;38405;53.212;5.660;2023-02-24T09:11:08;20.38;;;3.25;;
52494;SDS011;38405;53.212;5.660;2023-02-24T09:13:38;25.88;;;3.95;;
52494;SDS011;38405;53.212;5.660;2023-02-24T09:16:28;27.73;;;3.38;;
52494;SDS011;38405;53.212;5.660;2023-02-24T09:19:16;25.02;;;3.55;;
52494;SDS011;38405;53.212;5.660;2023-02-24T09:22:04;25.73;;;3.90;;
52494;SDS011;38405;53.212;5.660;2023-02-24T09:24:39;33.53;;;4.63;;
52494;SDS011;38405;53.212;5.660;2023-02-24T09:27:06;26.52;;;4.38;;
52494;SDS011;38405;53.212;5.660;2023-02-24T09:29:32;34.10;;;4.60;;
52494;SDS011;38405;53.212;5.660;2023-02-24T09:32:01;25.00;;;4.20;;
52494;SDS011;38405;53.212;5.660;2023-02-24T09:34:31;29.13;;;4.63;;
52494;SDS011;38405;53.212;5.660;2023-02-24T09:37:00;25.20;;;4.40;;
52494;SDS011;38405;53.212;5.660;2023-02-24T09:39:34;23.55;;;4.60;;
52494;SDS011;38405;53.212;5.660;2023-02-24T09:42:21;23.67;;;4.03;;
52494;SDS011;38405;53.212;5.660;2023-02-24T09:45:01;19.17;;;3.83;;
52494;SDS011;38405;53.212;5.660;2023-02-24T09:47:42;19.90;;;3.78;;
52494;SDS011;38405;53.212;5.660;2023-02-24T09:52:51;26.13;;;4.35;;
52494;SDS011;38405;53.212;5.660;2023-02-24T09:55:31;25.13;;;5.15;;
52494;SDS011;38405;53.212;5.660;2023-02-24T10:04:25;22.05;;;4.10;;
52494;SDS011;38405;53.212;5.660;2023-02-24T10:07:38;33.20;;;4.93;;
52494;SDS011;38405;53.212;5.660;2023-02-24T10:10:16;27.90;;;5.13;;
52494;SDS011;38405;53.212;5.660;2023-02-24T10:13:00;31.63;;;4.40;;
52494;SDS011;38405;53.212;5.660;2023-02-24T10:15:54;29.15;;;4.30;;
52494;SDS011;38405;53.212;5.660;2023-02-24T10:18:30;31.42;;;4.65;;
52494;SDS011;38405;53.212;5.660;2023-02-24T10:26:51;30.63;;;5.15;;
52494;SDS011;38405;53.212;5.660;2023-02-24T10:32:19;33.20;;;5.63;;
52494;SDS011;38405;53.212;5.660;2023-02-24T10:34:55;29.92;;;4.88;;
52494;SDS011;38405;53.212;5.660;2023-02-24T10:37:22;29.35;;;5.10;;
52494;SDS011;38405;53.212;5.660;2023-02-24T10:39:58;29.48;;;4.93;;
52494;SDS011;38405;53.212;5.660;2023-02-24T10:42:33;31.85;;;5.40;;
52494;SDS011;38405;53.212;5.660;2023-02-24T10:45:21;33.30;;;5.80;;
52494;SDS011;38405;53.212;5.660;2023-02-24T10:47:50;26.92;;;5.78;;
52494;SDS011;38405;53.212;5.660;2023-02-24T10:50:25;31.02;;;4.72;;
52494;SDS011;38405;53.212;5.660;2023-02-24T10:52:54;27.48;;;5.30;;
52494;SDS011;38405;53.212;5.660;2023-02-24T10:55:58;22.80;;;4.45;;
52494;SDS011;38405;53.212;5.660;2023-02-24T10:58:46;33.58;;;5.78;;
52494;SDS011;38405;53.212;5.660;2023-02-24T11:01:43;18.20;;;4.75;;
52494;SDS011;38405;53.212;5.660;2023-02-24T11:04:19;20.33;;;3.90;;
52494;SDS011;38405;53.212;5.660;2023-02-24T11:07:00;21.98;;;3.85;;
52494;SDS011;38405;53.212;5.660;2023-02-24T11:09:34;22.40;;;4.13;;
52494;SDS011;38405;53.212;5.660;2023-02-24T11:12:15;22.33;;;4.72;;
52494;SDS011;38405;53.212;5.660;2023-02-24T11:15:14;29.63;;;4.95;;
52494;SDS011;38405;53.212;5.660;2023-02-24T11:18:03;20.55;;;4.35;;
52494;SDS011;38405;53.212;5.660;2023-02-24T11:23:00;28.00;;;4.10;;
52494;SDS011;38405;53.212;5.660;2023-02-24T11:25:34;23.52;;;5.13;;
52494;SDS011;38405;53.212;5.660;2023-02-24T11:28:04;22.35;;;4.38;;
52494;SDS011;38405;53.212;5.660;2023-02-24T11:31:05;22.30;;;4.03;;
52494;SDS011;38405;53.212;5.660;2023-02-24T11:33:54;20.73;;;3.50;;
52494;SDS011;38405;53.212;5.660;2023-02-24T11:45:27;14.45;;;2.65;;
52494;SDS011;38405;53.212;5.660;2023-02-24T11:48:20;31.17;;;3.67;;
52494;SDS011;38405;53.212;5.660;2023-02-24T11:51:05;16.25;;;3.13;;
52494;SDS011;38405;53.212;5.660;2023-02-24T11:56:24;17.27;;;3.00;;
52494;SDS011;38405;53.212;5.660;2023-02-24T12:01:57;14.25;;;2.35;;
52494;SDS011;38405;53.212;5.660;2023-02-24T12:07:37;10.55;;;2.20;;
52494;SDS011;38405;53.212;5.660;2023-02-24T12:10:16;6.10;;;1.58;;
52494;SDS011;38405;53.212;5.660;2023-02-24T12:15:49;14.75;;;1.88;;
52494;SDS011;38405;53.212;5.660;2023-02-24T12:18:29;8.07;;;1.80;;
52494;SDS011;38405;53.212;5.660;2023-02-24T12:23:45;5.65;;;1.10;;
52494;SDS011;38405;53.212;5.660;2023-02-24T12:31:34;5.10;;;1.23;;
52494;SDS011;38405;53.212;5.660;2023-02-24T12:34:42;10.80;;;1.60;;
52494;SDS011;38405;53.212;5.660;2023-02-24T12:45:25;8.02;;;1.42;;
52494;SDS011;38405;53.212;5.660;2023-02-24T12:50:48;10.63;;;1.95;;
52494;SDS011;38405;53.212;5.660;2023-02-24T12:56:05;10.93;;;1.60;;
52494;SDS011;38405;53.212;5.660;2023-02-24T12:58:41;10.32;;;1.83;;
52494;SDS011;38405;53.212;5.660;2023-02-24T13:09:50;11.95;;;2.47;;
52494;SDS011;38405;53.212;5.660;2023-02-24T13:12:26;14.88;;;2.30;;
52494;SDS011;38405;53.212;5.660;2023-02-24T13:18:21;14.45;;;2.35;;
52494;SDS011;38405;53.212;5.660;2023-02-24T13:21:37;11.93;;;2.28;;
52494;SDS011;38405;53.212;5.660;2023-02-24T13:23:54;14.23;;;2.45;;
52494;SDS011;38405;53.212;5.660;2023-02-24T13:26:26;8.55;;;2.05;;
52494;SDS011;38405;53.212;5.660;2023-02-24T13:29:00;17.25;;;2.40;;
52494;SDS011;38405;53.212;5.660;2023-02-24T13:31:43;10.48;;;2.53;;
52494;SDS011;38405;53.212;5.660;2023-02-24T13:34:12;11.82;;;2.83;;
52494;SDS011;38405;53.212;5.660;2023-02-24T13:36:52;14.50;;;2.63;;
52494;SDS011;38405;53.212;5.660;2023-02-24T13:42:15;17.42;;;2.38;;
52494;SDS011;38405;53.212;5.660;2023-02-24T13:44:48;11.70;;;2.25;;
52494;SDS011;38405;53.212;5.660;2023-02-24T14:01:20;10.95;;;2.42;;
52494;SDS011;38405;53.212;5.660;2023-02-24T14:04:03;19.27;;;2.72;;
52494;SDS011;38405;53.212;5.660;2023-02-24T14:06:38;12.15;;;2.45;;
52494;SDS011;38405;53.212;5.660;2023-02-24T14:09:04;12.93;;;2.67;;
52494;SDS011;38405;53.212;5.660;2023-02-24T14:11:32;11.18;;;2.28;;
52494;SDS011;38405;53.212;5.660;2023-02-24T14:14:00;14.95;;;2.63;;
52494;SDS011;38405;53.212;5.660;2023-02-24T14:16:31;18.73;;;3.25;;
52494;SDS011;38405;53.212;5.660;2023-02-24T14:19:00;18.88;;;3.85;;
52494;SDS011;38405;53.212;5.660;2023-02-24T14:21:28;18.27;;;3.70;;
52494;SDS011;38405;53.212;5.660;2023-02-24T14:23:57;18.58;;;3.47;;
52494;SDS011;38405;53.212;5.660;2023-02-24T14:26:24;15.68;;;2.72;;
52494;SDS011;38405;53.212;5.660;2023-02-24T14:28:58;15.18;;;2.30;;
52494;SDS011;38405;53.212;5.660;2023-02-24T14:31:25;16.05;;;3.65;;
52494;SDS011;38405;53.212;5.660;2023-02-24T14:33:56;22.42;;;3.03;;
52494;SDS011;38405;53.212;5.660;2023-02-24T14:36:29;20.60;;;2.90;;
52494;SDS011;38405;53.212;5.660;2023-02-24T14:39:14;21.23;;;3.30;;
52494;SDS011;38405;53.212;5.660;2023-02-24T14:41:41;17.65;;;3.22;;
52494;SDS011;38405;53.212;5.660;2023-02-24T14:44:15;10.48;;;2.65;;
52494;SDS011;38405;53.212;5.660;2023-02-24T14:46:52;13.35;;;2.30;;
52494;SDS011;38405;53.212;5.660;2023-02-24T14:49:23;10.45;;;2.00;;
52494;SDS011;38405;53.212;5.660;2023-02-24T14:54:41;12.70;;;2.17;;
52494;SDS011;38405;53.212;5.660;2023-02-24T14:57:29;14.90;;;3.13;;
52494;SDS011;38405;53.212;5.660;2023-02-24T15:00:07;19.13;;;2.53;;
52494;SDS011;38405;53.212;5.660;2023-02-24T15:05:59;18.95;;;3.00;;
52494;SDS011;38405;53.212;5.660;2023-02-24T15:08:36;14.35;;;1.75;;
52494;SDS011;38405;53.212;5.660;2023-02-24T15:13:49;16.40;;;2.13;;
52494;SDS011;38405;53.212;5.660;2023-02-24T15:16:24;6.75;;;1.67;;
52494;SDS011;38405;53.212;5.660;2023-02-24T15:19:00;10.70;;;1.50;;
52494;SDS011;38405;53.212;5.660;2023-02-24T15:21:27;9.02;;;1.58;;
52494;SDS011;38405;53.212;5.660;2023-02-24T15:24:01;9.50;;;2.05;;
52494;SDS011;38405;53.212;5.660;2023-02-24T15:29:56;14.27;;;2.53;;
52494;SDS011;38405;53.212;5.660;2023-02-24T15:32:35;11.95;;;2.20;;
52494;SDS011;38405;53.212;5.660;2023-02-24T15:35:04;10.52;;;2.67;;
52494;SDS011;38405;53.212;5.660;2023-02-24T15:37:38;15.80;;;2.63;;
52494;SDS011;38405;53.212;5.660;2023-02-24T15:40:20;16.48;;;2.58;;
52494;SDS011;38405;53.212;5.660;2023-02-24T15:42:51;10.73;;;2.30;;
52494;SDS011;38405;53.212;5.660;2023-02-24T15:45:25;17.73;;;2.67;;
52494;SDS011;38405;53.212;5.660;2023-02-24T15:47:56;15.68;;;2.88;;
52494;SDS011;38405;53.212;5.660;2023-02-24T15:50:23;13.20;;;2.72;;
52494;SDS011;38405;53.212;5.660;2023-02-24T15:52:49;15.23;;;3.08;;
52494;SDS011;38405;53.212;5.660;2023-02-24T15:55:17;21.10;;;3.60;;
52494;SDS011;38405;53.212;5.660;2023-02-24T15:57:43;8.90;;;2.35;;
52494;SDS011;38405;53.212;5.660;2023-02-24T16:00:13;9.65;;;2.40;;
52494;SDS011;38405;53.212;5.660;2023-02-24T16:02:41;21.73;;;3.45;;
52494;SDS011;38405;53.212;5.660;2023-02-24T16:05:13;15.35;;;3.28;;
52494;SDS011;38405;53.212;5.660;2023-02-24T16:07:40;19.83;;;4.35;;
52494;SDS011;38405;53.212;5.660;2023-02-24T16:10:13;19.90;;;3.47;;
52494;SDS011;38405;53.212;5.660;2023-02-24T16:12:49;11.18;;;2.78;;
52494;SDS011;38405;53.212;5.660;2023-02-24T16:15:19;21.95;;;3.78;;
52494;SDS011;38405;53.212;5.660;2023-02-24T16:17:49;22.77;;;4.47;;
52494;SDS011;38405;53.212;5.660;2023-02-24T16:20:19;20.58;;;3.47;;
52494;SDS011;38405;53.212;5.660;2023-02-24T16:22:59;19.58;;;3.50;;
52494;SDS011;38405;53.212;5.660;2023-02-24T16:25:27;30.73;;;4.85;;
52494;SDS011;38405;53.212;5.660;2023-02-24T16:27:54;25.25;;;4.30;;
52494;SDS011;38405;53.212;5.660;2023-02-24T16:30:24;25.42;;;3.92;;
52494;SDS011;38405;53.212;5.660;2023-02-24T16:32:54;27.27;;;4.60;;
52494;SDS011;38405;53.212;5.660;2023-02-24T16:35:24;21.88;;;4.32;;
52494;SDS011;38405;53.212;5.660;2023-02-24T16:37:50;27.17;;;4.53;;
52494;SDS011;38405;53.212;5.660;2023-02-24T16:42:44;25.52;;;4.43;;
52494;SDS011;38405;53.212;5.660;2023-02-24T16:45:11;29.77;;;4.38;;
52494;SDS011;38405;53.212;5.660;2023-02-24T16:47:36;28.55;;;4.60;;
52494;SDS011;38405;53.212;5.660;2023-02-24T16:50:02;29.23;;;5.00;;
52494;SDS011;38405;53.212;5.660;2023-02-24T16:52:28;29.45;;;4.88;;
52494;SDS011;38405;53.212;5.660;2023-02-24T16:54:54;31.80;;;8.45;;
52494;SDS011;38405;53.212;5.660;2023-02-24T16:57:20;13.27;;;4.10;;
52494;SDS011;38405;53.212;5.660;2023-02-24T16:59:52;12.20;;;3.08;;
52494;SDS011;38405;53.212;5.660;2023-02-24T17:02:22;11.00;;;3.03;;
52494;SDS011;38405;53.212;5.660;2023-02-24T17:04:49;10.18;;;2.80;;
52494;SDS011;38405;53.212;5.660;2023-02-24T17:07:15;14.20;;;3.55;;
52494;SDS011;38405;53.212;5.660;2023-02-24T17:09:43;14.75;;;3.20;;
52494;SDS011;38405;53.212;5.660;2023-02-24T17:12:10;15.68;;;3.92;;
52494;SDS011;38405;53.212;5.660;2023-02-24T17:14:37;22.30;;;5.65;;
52494;SDS011;38405;53.212;5.660;2023-02-24T17:17:02;16.65;;;3.33;;
52494;SDS011;38405;53.212;5.660;2023-02-24T17:19:28;20.30;;;4.53;;
52494;SDS011;38405;53.212;5.660;2023-02-24T17:21:54;22.83;;;5.40;;
52494;SDS011;38405;53.212;5.660;2023-02-24T17:24:19;25.65;;;8.25;;
52494;SDS011;38405;53.212;5.660;2023-02-24T17:26:45;19.77;;;5.13;;
52494;SDS011;38405;53.212;5.660;2023-02-24T17:29:11;25.27;;;5.43;;
52494;SDS011;38405;53.212;5.660;2023-02-24T17:31:39;31.92;;;5.22;;
52494;SDS011;38405;53.212;5.660;2023-02-24T17:34:15;33.63;;;8.68;;
52494;SDS011;38405;53.212;5.660;2023-02-24T17:36:40;42.30;;;11.68;;
52494;SDS011;38405;53.212;5.660;2023-02-24T17:39:06;31.25;;;8.95;;